Latest Weather Observations for Ernabella/Pukatja

IDD60801

Issued at 6:01 am CST Tuesday 12 December 2017 (issued every 30 minutes, with the page automatically refreshed every 10 minutes)

About weather observations | Map of weather stations | Latest weather observations for NT | Other Formats
Station Details ID: 016097 Name: PUKATJA Lat: -26.26 Lon: 132.18 Height: 703.2 m
Data from the previous 72 hours. | See also: Recent months at Ernabella/Pukatja
Date/Time
CST
Temp
°C
App
Temp
°C
Dew
Point
°C
Rel
Hum
%
Delta-T
°C
Wind Press
QNH
hPa
Press
MSL
hPa
Rain since
9am
mm
Dir  Spd
km/h
Gust
km/h
Spd
kts
Gust
kts
12/06:00am 19.5 16.7 5.2 39 7.2 E 9 9 5 5 1016.0 1011.2 0.0
12/05:30am 18.3 16.2 6.5 46 6.1 E 7 9 4 5 1015.7 1010.9 0.0
12/05:00am 18.3 15.6 5.8 44 6.3 E 9 11 5 6 1015.6 1010.8 0.0
12/04:30am 21.5 18.9 4.1 32 8.7 ESE 7 9 4 5 1015.2 1010.4 0.0
12/04:00am 22.4 19.5 2.5 27 9.8 ESE 7 9 4 5 1015.0 1010.2 0.0
12/03:30am 21.6 18.7 2.8 29 9.2 E 7 7 4 4 1014.9 1010.1 0.0
12/03:00am 18.0 15.2 5.2 43 6.4 ENE 9 11 5 6 1014.9 1010.1 0.0
12/02:30am 16.8 13.9 4.5 44 6.0 E 9 11 5 6 1015.0 1010.2 0.0
12/02:00am 16.2 14.3 7.4 56 4.6 ENE 7 7 4 4 1015.2 1010.4 0.0
12/01:30am 16.9 14.9 6.1 49 5.5 SSW 6 6 3 3 1015.6 1010.8 0.0
12/01:00am 19.0 17.6 3.6 36 7.5 CALM 0 0 0 0 1016.0 1011.2 0.0
12/12:30am 19.5 18.2 4.0 36 7.7 CALM 0 0 0 0 1016.2 1011.4 0.0
12/12:00am 19.9 18.4 3.2 33 8.2 CALM 0 0 0 0 1016.6 1011.8 0.0
 
Date/Time
CST
Temp
°C
App
Temp
°C
Dew
Point
°C
Rel
Hum
%
Delta-T
°C
Wind Press
QNH
hPa
Press
MSL
hPa
Rain since
9am
mm
Dir  Spd
km/h
Gust
km/h
Spd
kts
Gust
kts
11/11:30pm 21.1 18.4 2.4 29 9.1 WNW 6 7 3 4 1017.1 1012.3 0.0
11/11:00pm 21.8 20.5 3.9 31 9.0 CALM 0 4 0 2 1017.3 1012.5 0.0
11/10:30pm 22.9 19.7 2.9 27 9.9 E 9 13 5 7 1017.4 1012.6 0.0
11/10:00pm 22.7 19.9 3.3 28 9.7 E 7 11 4 6 1017.3 1012.5 0.0
11/09:30pm 26.2 21.7 0.0 18 12.6 SE 13 19 7 10 1017.1 1012.3 0.0
11/09:00pm 27.0 22.2 -0.1 17 13.1 SE 15 22 8 12 1016.8 1012.1 0.0
11/08:30pm 27.5 23.5 0.3 17 13.3 SE 11 15 6 8 1017.0 1012.2 0.0
11/08:00pm 27.9 23.4 -0.2 16 13.6 SSE 13 17 7 9 1016.8 1012.1 0.0
11/07:30pm 29.0 24.0 -1.2 14 14.5 S 15 17 8 9 1016.7 1011.9 0.0
11/07:00pm 29.8 24.4 -1.5 13 15.0 S 17 22 9 12 1016.5 1011.7 0.0
11/06:30pm 30.3 25.5 -2.2 12 15.5 SSE 13 20 7 11 1016.3 1011.5 0.0
11/06:00pm 31.0 25.4 -2.9 11 16.0 SSE 17 20 9 11 1016.0 1011.2 0.0
11/05:30pm 31.8 26.7 -2.3 11 16.4 SSE 15 24 8 13 1015.8 1011.0 0.0
11/05:00pm 32.2 26.6 -3.2 10 16.8 ESE 17 24 9 13 1015.9 1011.1 0.0
11/04:30pm 32.5 27.9 -4.4 9 17.2 SSE 11 19 6 10 1016.0 1011.2 0.0
11/04:00pm 32.6 27.8 -2.9 10 17.0 ESE 13 20 7 11 1016.3 1011.5 0.0
11/03:30pm 32.9 27.7 -2.7 10 17.1 SE 15 24 8 13 1016.7 1011.9 0.0
11/03:00pm 33.2 29.3 -1.2 11 17.0 S 9 15 5 8 1017.1 1012.3 0.0
11/02:30pm 32.7 27.5 -2.9 10 17.0 E 15 24 8 13 1017.4 1012.6 0.0
11/02:00pm 33.1 28.5 -1.3 11 16.9 SSE 13 24 7 13 1017.8 1013.0 0.0
11/01:30pm 32.2 27.7 -3.2 10 16.8 ENE 11 20 6 11 1018.1 1013.4 0.0
11/01:00pm 32.2 28.2 0.3 13 16.1 SSW 11 28 6 15 1018.6 1013.8 0.0
11/12:30pm 30.9 27.2 -3.0 11 16.0 SE 7 15 4 8 1018.9 1014.1 0.0
11/12:00pm 31.1 26.2 -0.5 13 15.6 NE 15 26 8 14 1019.4 1014.7 0.0
11/11:30am 31.3 25.8 0.6 14 15.4 ENE 19 28 10 15 1019.8 1015.1 0.0
11/11:00am 30.5 24.7 0.0 14 15.1 ESE 20 30 11 16 1020.3 1015.5 0.0
11/10:30am 29.6 23.3 -0.7 14 14.7 ENE 22 32 12 17 1020.4 1015.6 0.0
11/10:00am 29.7 22.8 0.3 15 14.6 E 26 37 14 20 1020.6 1015.8 0.0
11/09:30am 29.4 22.5 0.1 15 14.4 E 26 35 14 19 1020.7 1015.9 0.0
11/09:00am 28.4 21.5 0.2 16 13.8 ENE 26 33 14 18 1020.7 1015.9 0.0
11/08:30am 28.0 22.2 -0.1 16 13.6 ENE 20 30 11 16 1020.6 1015.8 0.0
11/08:00am 25.9 20.6 1.9 21 11.9 ENE 19 24 10 13 1020.4 1015.6 0.0
11/07:30am 24.0 19.3 1.0 22 11.1 ENE 15 19 8 10 1020.2 1015.4 0.0
11/07:00am 22.1 18.3 1.7 26 9.8 ENE 11 15 6 8 1020.1 1015.3 0.0
11/06:30am 18.1 15.5 4.3 40 6.8 NE 7 9 4 5 1019.8 1015.1 0.0
11/06:00am 14.8 11.3 1.3 40 6.1 ENE 9 11 5 6 1019.5 1014.8 0.0
11/05:30am 14.7 11.5 0.9 39 6.2 ENE 7 9 4 5 1019.2 1014.4 0.0
11/05:00am 15.6 12.1 1.0 37 6.6 ENE 9 11 5 6 1019.0 1014.2 0.0
11/04:30am 15.7 11.8 1.1 37 6.6 NE 11 13 6 7 1018.9 1014.1 0.0
11/04:00am 16.9 12.7 1.4 35 7.1 NE 13 17 7 9 1018.8 1014.0 0.0
11/03:30am 16.9 12.4 2.1 37 6.9 NE 15 17 8 9 1018.7 1013.9 0.0
11/03:00am 15.8 12.3 3.3 43 5.9 NE 11 15 6 8 1018.5 1013.7 0.0
11/02:30am 15.2 12.0 4.9 50 5.0 NE 11 15 6 8 1018.3 1013.6 0.0
11/02:00am 16.8 13.4 3.8 42 6.3 E 11 13 6 7 1018.9 1014.1 0.0
11/01:30am 16.2 14.9 5.8 50 5.2 E 2 7 1 4 1019.3 1014.5 0.0
11/01:00am 17.2 15.9 4.2 42 6.4 CALM 0 0 0 0 1019.7 1015.0 0.0
11/12:30am 18.1 16.4 2.0 34 7.6 CALM 0 0 0 0 1020.1 1015.3 0.0
11/12:00am 19.4 17.4 2.3 32 8.2 ENE 2 6 1 3 1020.2 1015.4 0.0
 
Date/Time
CST
Temp
°C
App
Temp
°C
Dew
Point
°C
Rel
Hum
%
Delta-T
°C
Wind Press
QNH
hPa
Press
MSL
hPa
Rain since
9am
mm
Dir  Spd
km/h
Gust
km/h
Spd
kts
Gust
kts
10/11:30pm 21.1 18.1 0.9 26 9.5 NNE 6 7 3 4 1020.3 1015.5 0.0
10/11:00pm 23.3 19.3 0.4 22 10.8 SE 11 17 6 9 1020.4 1015.6 0.0
10/10:30pm 24.3 19.5 -0.1 20 11.5 SSE 15 17 8 9 1020.4 1015.6 0.0
10/10:00pm 25.7 20.3 -1.2 17 12.6 ESE 17 24 9 13 1020.3 1015.5 0.0
10/09:30pm 26.2 20.2 -1.6 16 13.0 ESE 20 28 11 15 1020.0 1015.2 0.0
10/09:00pm 26.3 20.9 -1.5 16 13.0 SE 17 22 9 12 1019.6 1014.9 0.0
10/08:30pm 26.6 21.7 -3.1 14 13.5 SE 13 17 7 9 1019.3 1014.5 0.0
10/08:00pm 26.5 21.5 -4.1 13 13.7 SE 13 15 7 8 1019.2 1014.4 0.0
10/07:30pm 26.9 22.1 -2.8 14 13.6 SE 13 17 7 9 1019.0 1014.2 0.0
10/07:00pm 28.8 23.0 -4.6 11 15.1 SE 17 22 9 12 1018.9 1014.1 0.0
10/06:30pm 29.9 24.3 -2.6 12 15.3 SE 17 24 9 13 1018.6 1013.8 0.0
10/06:00pm 30.5 24.9 -3.3 11 15.8 ESE 17 22 9 12 1018.3 1013.6 0.0
10/05:30pm 31.2 25.1 -2.7 11 16.1 ESE 20 30 11 16 1018.0 1013.2 0.0
10/05:00pm 31.2 25.6 -2.7 11 16.1 SE 17 24 9 13 1017.9 1013.1 0.0
10/04:30pm 31.9 26.8 -2.2 11 16.4 ESE 15 26 8 14 1018.1 1013.4 0.0
10/04:00pm 31.7 26.6 -5.0 9 16.9 E 13 24 7 13 1018.3 1013.6 0.0
10/03:30pm 32.9 27.3 -2.7 10 17.1 SE 17 26 9 14 1018.6 1013.8 0.0
10/03:00pm 31.8 27.0 -2.3 11 16.4 ESE 13 22 7 12 1018.9 1014.1 0.0
10/02:30pm 31.7 25.4 -3.6 10 16.6 E 20 32 11 17 1019.0 1014.2 0.0
10/02:00pm 31.3 25.6 -3.9 10 16.4 ENE 17 24 9 13 1019.3 1014.5 0.0
10/01:30pm 30.9 25.0 -0.7 13 15.5 ENE 20 33 11 18 1019.7 1015.0 0.0
10/01:00pm 30.8 24.9 -0.8 13 15.5 NE 20 32 11 17 1020.3 1015.5 0.0
10/12:30pm 31.2 26.3 -0.5 13 15.6 ENE 15 28 8 15 1020.5 1015.7 0.0
10/12:00pm 29.8 23.9 -2.6 12 15.3 ENE 19 32 10 17 1020.9 1016.2 0.0
10/11:30am 29.5 24.0 -1.8 13 14.9 ENE 17 32 9 17 1021.2 1016.5 0.0
10/11:00am 29.2 23.6 -0.1 15 14.3 NE 19 28 10 15 1021.3 1016.6 0.0
10/10:30am 28.7 22.8 -0.5 15 14.1 ENE 20 33 11 18 1021.6 1016.8 0.0
10/10:00am 27.7 21.5 -0.4 16 13.6 ENE 22 30 12 16 1021.8 1017.0 0.0
10/09:30am 26.5 19.5 -0.5 17 12.9 ENE 26 35 14 19 1022.0 1017.2 0.0
10/09:00am 25.6 18.2 -0.5 18 12.4 ENE 28 37 15 20 1022.2 1017.5 0.0
10/08:30am 24.5 17.5 -0.6 19 11.8 ENE 26 33 14 18 1022.0 1017.2 0.0
10/08:00am 23.6 18.7 1.9 24 10.6 ENE 17 24 9 13 1021.9 1017.1 0.0
10/07:30am 21.8 16.7 0.9 25 9.9 ENE 17 24 9 13 1021.8 1017.0 0.0
10/07:00am 19.5 16.4 1.5 30 8.5 E 7 9 4 5 1021.5 1016.7 0.0
10/06:30am 18.2 14.6 0.8 31 8.0 E 9 13 5 7 1021.2 1016.5 0.0
10/06:00am 15.2 11.7 1.4 39 6.3 E 9 11 5 6 1021.1 1016.4 0.0
10/05:30am 15.1 11.6 1.3 39 6.2 E 9 11 5 6 1020.8 1016.1 0.0
10/05:00am 15.2 11.3 1.4 39 6.2 E 11 13 6 7 1020.4 1015.6 0.0
10/04:30am 15.1 11.7 1.6 40 6.1 NE 9 13 5 7 1020.2 1015.4 0.0
10/04:00am 16.3 12.0 1.2 36 6.9 E 13 19 7 10 1020.0 1015.2 0.0
10/03:30am 15.7 11.9 1.8 39 6.4 ENE 11 13 6 7 1019.8 1015.1 0.0
10/03:00am 16.7 12.6 2.0 37 6.8 E 13 13 7 7 1019.8 1015.1 0.0
10/02:30am 17.1 13.7 1.9 36 7.1 E 9 11 5 6 1019.8 1015.1 0.0
10/02:00am 17.0 13.3 2.2 37 6.9 ENE 11 13 6 7 1020.0 1015.2 0.0
10/01:30am 16.9 13.2 2.5 38 6.8 NE 11 13 6 7 1020.1 1015.3 0.0
10/01:00am 18.0 14.2 1.9 34 7.6 ENE 11 13 6 7 1020.4 1015.6 0.0
10/12:30am 18.7 14.5 1.7 32 8.0 ENE 13 17 7 9 1020.5 1015.7 0.0
10/12:00am 20.9 16.2 1.2 27 9.3 ENE 15 19 8 10 1020.7 1015.9 0.0
 
Date/Time
CST
Temp
°C
App
Temp
°C
Dew
Point
°C
Rel
Hum
%
Delta-T
°C
Wind Press
QNH
hPa
Press
MSL
hPa
Rain since
9am
mm
Dir  Spd
km/h
Gust
km/h
Spd
kts
Gust
kts
09/11:30pm 20.6 16.4 1.5 28 9.0 ENE 13 15 7 8 1020.8 1016.1 0.0
09/11:00pm 20.7 17.2 1.1 27 9.2 ENE 9 13 5 7 1020.8 1016.1 0.0
09/10:30pm 24.0 18.3 -1.0 19 11.6 ESE 19 26 10 14 1020.8 1016.1 0.0
09/10:00pm 24.4 18.5 -0.7 19 11.8 ESE 20 28 11 15 1020.7 1015.9 0.0
09/09:30pm 24.6 18.8 0.2 20 11.6 ESE 20 26 11 14 1020.3 1015.5 0.0
09/09:00pm 24.8 18.7 0.3 20 11.7 ESE 22 32 12 17 1020.0 1015.2 0.0
09/08:30pm 25.2 19.6 0.0 19 12.0 ESE 19 26 10 14 1019.7 1015.0 0.0
09/08:00pm 24.9 20.1 0.4 20 11.7 ESE 15 22 8 12 1019.5 1014.8 0.0
09/07:30pm 25.8 20.5 -0.3 18 12.4 ESE 17 24 9 13 1019.2 1014.4 0.0
09/07:00pm 27.0 21.3 -0.9 16 13.3 ESE 19 26 10 14 1018.8 1014.0 0.0
09/06:30pm 28.0 22.8 -0.1 16 13.6 ESE 17 26 9 14 1018.2 1013.5 0.0
09/06:00pm 29.2 23.5 -1.0 14 14.6 ESE 19 26 10 14 1018.0 1013.2 0.0
09/05:30pm 29.5 23.5 -2.9 12 15.1 E 19 30 10 16 1017.7 1012.9 0.0
09/05:00pm 29.9 24.5 -1.5 13 15.1 E 17 24 9 13 1017.8 1013.0 0.0
09/04:30pm 29.9 24.3 -2.6 12 15.3 E 17 28 9 15 1017.9 1013.1 0.0
09/04:00pm 30.2 24.4 -1.2 13 15.2 E 19 32 10 17 1018.1 1013.4 0.0
09/03:30pm 30.5 24.7 0.0 14 15.1 ENE 20 30 11 16 1018.6 1013.8 0.0
09/03:00pm 30.7 25.1 0.2 14 15.2 E 19 24 10 13 1018.9 1014.1 0.0
09/02:30pm 30.3 25.1 -0.1 14 15.0 ESE 17 30 9 16 1019.2 1014.4 0.0
09/02:00pm 29.9 24.5 -1.5 13 15.1 NE 17 28 9 15 1019.6 1014.9 0.0
09/01:30pm 28.7 22.8 -2.4 13 14.6 ENE 19 28 10 15 1020.3 1015.5 0.0
09/01:00pm 28.2 22.6 0.0 16 13.8 ENE 19 33 10 18 1020.5 1015.7 0.0
09/12:30pm 27.8 22.4 1.3 18 13.2 ENE 19 28 10 15 1020.9 1016.2 0.0
09/12:00pm 26.7 21.8 1.9 20 12.4 E 17 30 9 16 1021.3 1016.6 0.0
09/11:30am 26.1 20.2 1.4 20 12.1 E 22 30 12 16 1021.8 1017.0 0.0
09/11:00am 25.1 19.2 1.9 22 11.4 ENE 22 32 12 17 1022.0 1017.2 0.0
09/10:30am 24.4 18.3 2.5 24 10.9 ENE 24 37 13 20 1022.3 1017.6 0.0
09/10:00am 24.3 17.8 2.5 24 10.8 ENE 26 35 14 19 1022.3 1017.6 0.0
09/09:30am 22.6 16.1 2.7 27 9.8 ENE 26 37 14 20 1022.5 1017.8 0.0
09/09:00am 22.0 15.6 3.2 29 9.3 E 26 39 14 21 1022.6 1017.9 0.0
09/08:30am 21.2 15.1 2.5 29 9.1 E 24 32 13 17 1022.7 1018.0 0.0
09/08:00am 20.0 13.8 2.4 31 8.4 ENE 24 32 13 17 1022.6 1017.9 0.0
09/07:30am 19.0 13.5 2.0 32 8.0 ENE 20 28 11 15 1022.2 1017.5 0.0
09/07:00am 18.2 14.7 1.3 32 7.8 ENE 9 13 5 7 1022.1 1017.4 0.0
09/06:30am 17.0 12.7 1.0 34 7.3 E 13 19 7 10 1021.8 1017.0 0.0
09/06:00am 15.0 11.0 0.4 37 6.5 E 11 13 6 7 1021.6 1016.8 0.0
09/05:30am 15.6 10.9 0.6 36 6.7 E 15 20 8 11 1021.0 1016.3 0.0

Other Formats:

Comma delimited format used in spreadsheet applications
http://www.bom.gov.au/fwo/IDD60801/IDD60801.94474.axf

JavaScript Object Notation format (JSON) in row-major order
http://www.bom.gov.au/fwo/IDD60801/IDD60801.94474.json